sensor_id;sensor_type;location;lat;lon;timestamp;P1;durP1;ratioP1;P2;durP2;ratioP2
18170;SDS011;9210;48.358;10.902;2023-05-20T00:01:54;7.93;;;5.20;;
18170;SDS011;9210;48.358;10.902;2023-05-20T00:04:24;7.20;;;4.60;;
18170;SDS011;9210;48.358;10.902;2023-05-20T00:06:52;7.10;;;4.90;;
18170;SDS011;9210;48.358;10.902;2023-05-20T00:09:21;8.80;;;5.03;;
18170;SDS011;9210;48.358;10.902;2023-05-20T00:11:50;9.23;;;5.10;;
18170;SDS011;9210;48.358;10.902;2023-05-20T00:14:18;8.83;;;4.90;;
18170;SDS011;9210;48.358;10.902;2023-05-20T00:16:47;8.27;;;5.23;;
18170;SDS011;9210;48.358;10.902;2023-05-20T00:19:16;8.23;;;5.10;;
18170;SDS011;9210;48.358;10.902;2023-05-20T00:21:46;7.50;;;4.50;;
18170;SDS011;9210;48.358;10.902;2023-05-20T00:24:14;9.93;;;5.03;;
18170;SDS011;9210;48.358;10.902;2023-05-20T00:26:43;6.13;;;4.30;;
18170;SDS011;9210;48.358;10.902;2023-05-20T00:29:11;7.57;;;4.50;;
18170;SDS011;9210;48.358;10.902;2023-05-20T00:31:40;6.07;;;4.53;;
18170;SDS011;9210;48.358;10.902;2023-05-20T00:34:09;5.70;;;4.00;;
18170;SDS011;9210;48.358;10.902;2023-05-20T00:36:37;9.27;;;4.83;;
18170;SDS011;9210;48.358;10.902;2023-05-20T00:39:07;11.37;;;4.73;;
18170;SDS011;9210;48.358;10.902;2023-05-20T00:41:35;8.00;;;4.83;;
18170;SDS011;9210;48.358;10.902;2023-05-20T00:44:09;7.13;;;4.30;;
18170;SDS011;9210;48.358;10.902;2023-05-20T00:46:38;8.87;;;4.80;;
18170;SDS011;9210;48.358;10.902;2023-05-20T00:49:07;7.97;;;4.63;;
18170;SDS011;9210;48.358;10.902;2023-05-20T00:51:35;7.37;;;4.40;;
18170;SDS011;9210;48.358;10.902;2023-05-20T00:54:06;6.63;;;4.47;;
18170;SDS011;9210;48.358;10.902;2023-05-20T00:56:35;7.10;;;4.20;;
18170;SDS011;9210;48.358;10.902;2023-05-20T00:59:04;9.37;;;4.70;;
18170;SDS011;9210;48.358;10.902;2023-05-20T01:01:34;10.70;;;4.90;;
18170;SDS011;9210;48.358;10.902;2023-05-20T01:04:03;7.33;;;4.27;;
18170;SDS011;9210;48.358;10.902;2023-05-20T01:06:31;7.33;;;4.93;;
18170;SDS011;9210;48.358;10.902;2023-05-20T01:09:00;10.50;;;5.10;;
18170;SDS011;9210;48.358;10.902;2023-05-20T01:11:32;8.00;;;5.20;;
18170;SDS011;9210;48.358;10.902;2023-05-20T01:14:02;8.40;;;4.70;;
18170;SDS011;9210;48.358;10.902;2023-05-20T01:16:33;8.20;;;5.13;;
18170;SDS011;9210;48.358;10.902;2023-05-20T01:19:03;5.80;;;4.50;;
18170;SDS011;9210;48.358;10.902;2023-05-20T01:21:34;9.23;;;5.10;;
18170;SDS011;9210;48.358;10.902;2023-05-20T01:24:04;6.30;;;5.13;;
18170;SDS011;9210;48.358;10.902;2023-05-20T01:26:33;6.93;;;4.40;;
18170;SDS011;9210;48.358;10.902;2023-05-20T01:29:03;13.17;;;5.20;;
18170;SDS011;9210;48.358;10.902;2023-05-20T01:31:32;7.33;;;4.60;;
18170;SDS011;9210;48.358;10.902;2023-05-20T01:34:04;7.77;;;5.53;;
18170;SDS011;9210;48.358;10.902;2023-05-20T01:36:33;7.57;;;4.77;;
18170;SDS011;9210;48.358;10.902;2023-05-20T01:39:03;6.60;;;4.60;;
18170;SDS011;9210;48.358;10.902;2023-05-20T01:41:32;8.63;;;5.33;;
18170;SDS011;9210;48.358;10.902;2023-05-20T01:44:02;8.40;;;4.90;;
18170;SDS011;9210;48.358;10.902;2023-05-20T01:46:31;8.33;;;5.00;;
18170;SDS011;9210;48.358;10.902;2023-05-20T01:49:01;7.07;;;4.97;;
18170;SDS011;9210;48.358;10.902;2023-05-20T01:51:29;6.27;;;4.50;;
18170;SDS011;9210;48.358;10.902;2023-05-20T01:54:01;9.30;;;5.07;;
18170;SDS011;9210;48.358;10.902;2023-05-20T01:56:31;6.83;;;4.50;;
18170;SDS011;9210;48.358;10.902;2023-05-20T01:58:59;7.83;;;4.80;;
18170;SDS011;9210;48.358;10.902;2023-05-20T02:01:28;8.60;;;4.40;;
18170;SDS011;9210;48.358;10.902;2023-05-20T02:03:57;7.83;;;4.57;;
18170;SDS011;9210;48.358;10.902;2023-05-20T02:06:25;7.57;;;4.77;;
18170;SDS011;9210;48.358;10.902;2023-05-20T02:08:54;6.83;;;4.63;;
18170;SDS011;9210;48.358;10.902;2023-05-20T02:11:22;7.83;;;4.77;;
18170;SDS011;9210;48.358;10.902;2023-05-20T02:13:54;6.53;;;4.57;;
18170;SDS011;9210;48.358;10.902;2023-05-20T02:16:23;8.13;;;4.73;;
18170;SDS011;9210;48.358;10.902;2023-05-20T02:18:51;6.10;;;4.23;;
18170;SDS011;9210;48.358;10.902;2023-05-20T02:21:21;8.60;;;5.63;;
18170;SDS011;9210;48.358;10.902;2023-05-20T02:23:49;8.17;;;4.90;;
18170;SDS011;9210;48.358;10.902;2023-05-20T02:26:18;7.83;;;5.10;;
18170;SDS011;9210;48.358;10.902;2023-05-20T02:28:48;8.37;;;4.67;;
18170;SDS011;9210;48.358;10.902;2023-05-20T02:31:21;8.07;;;5.03;;
18170;SDS011;9210;48.358;10.902;2023-05-20T02:33:49;8.07;;;5.20;;
18170;SDS011;9210;48.358;10.902;2023-05-20T02:36:18;7.60;;;4.80;;
18170;SDS011;9210;48.358;10.902;2023-05-20T02:38:47;7.87;;;5.50;;
18170;SDS011;9210;48.358;10.902;2023-05-20T02:41:16;10.70;;;5.33;;
18170;SDS011;9210;48.358;10.902;2023-05-20T02:43:45;7.83;;;5.00;;
18170;SDS011;9210;48.358;10.902;2023-05-20T02:46:14;9.23;;;6.07;;
18170;SDS011;9210;48.358;10.902;2023-05-20T02:48:45;10.67;;;5.80;;
18170;SDS011;9210;48.358;10.902;2023-05-20T02:51:14;9.87;;;6.00;;
18170;SDS011;9210;48.358;10.902;2023-05-20T02:53:42;11.73;;;5.63;;
18170;SDS011;9210;48.358;10.902;2023-05-20T02:56:11;9.53;;;5.20;;
18170;SDS011;9210;48.358;10.902;2023-05-20T02:58:40;8.20;;;5.83;;
18170;SDS011;9210;48.358;10.902;2023-05-20T03:01:10;9.87;;;5.43;;
18170;SDS011;9210;48.358;10.902;2023-05-20T03:03:39;8.77;;;5.90;;
18170;SDS011;9210;48.358;10.902;2023-05-20T03:06:09;10.87;;;6.23;;
18170;SDS011;9210;48.358;10.902;2023-05-20T03:08:37;8.03;;;5.50;;
18170;SDS011;9210;48.358;10.902;2023-05-20T03:11:08;9.93;;;5.83;;
18170;SDS011;9210;48.358;10.902;2023-05-20T03:13:36;8.90;;;5.83;;
18170;SDS011;9210;48.358;10.902;2023-05-20T03:16:05;9.47;;;5.97;;
18170;SDS011;9210;48.358;10.902;2023-05-20T03:18:34;9.57;;;5.93;;
18170;SDS011;9210;48.358;10.902;2023-05-20T03:21:03;8.93;;;6.40;;
18170;SDS011;9210;48.358;10.902;2023-05-20T03:23:33;9.73;;;6.43;;
18170;SDS011;9210;48.358;10.902;2023-05-20T03:26:01;8.07;;;5.40;;
18170;SDS011;9210;48.358;10.902;2023-05-20T03:28:32;14.40;;;6.57;;
18170;SDS011;9210;48.358;10.902;2023-05-20T03:31:01;11.17;;;6.63;;
18170;SDS011;9210;48.358;10.902;2023-05-20T03:33:32;10.27;;;6.70;;
18170;SDS011;9210;48.358;10.902;2023-05-20T03:36:01;10.57;;;6.53;;
18170;SDS011;9210;48.358;10.902;2023-05-20T03:38:31;8.67;;;6.03;;
18170;SDS011;9210;48.358;10.902;2023-05-20T03:41:01;12.20;;;6.77;;
18170;SDS011;9210;48.358;10.902;2023-05-20T03:43:31;10.53;;;6.30;;
18170;SDS011;9210;48.358;10.902;2023-05-20T03:45:59;12.37;;;6.67;;
18170;SDS011;9210;48.358;10.902;2023-05-20T03:48:28;10.87;;;6.93;;
18170;SDS011;9210;48.358;10.902;2023-05-20T03:50:56;14.20;;;6.73;;
18170;SDS011;9210;48.358;10.902;2023-05-20T03:53:25;12.67;;;6.37;;
18170;SDS011;9210;48.358;10.902;2023-05-20T03:55:54;16.17;;;6.30;;
18170;SDS011;9210;48.358;10.902;2023-05-20T03:58:26;10.53;;;6.83;;
18170;SDS011;9210;48.358;10.902;2023-05-20T04:00:56;10.17;;;6.90;;
18170;SDS011;9210;48.358;10.902;2023-05-20T04:03:25;12.17;;;6.83;;
18170;SDS011;9210;48.358;10.902;2023-05-20T04:05:54;10.70;;;7.00;;
18170;SDS011;9210;48.358;10.902;2023-05-20T04:08:23;13.93;;;7.63;;
18170;SDS011;9210;48.358;10.902;2023-05-20T04:10:54;11.50;;;8.03;;
18170;SDS011;9210;48.358;10.902;2023-05-20T04:13:24;12.67;;;6.80;;
18170;SDS011;9210;48.358;10.902;2023-05-20T04:15:53;10.40;;;6.93;;
18170;SDS011;9210;48.358;10.902;2023-05-20T04:18:22;11.80;;;7.27;;
18170;SDS011;9210;48.358;10.902;2023-05-20T04:20:53;11.07;;;7.07;;
18170;SDS011;9210;48.358;10.902;2023-05-20T04:23:22;11.20;;;7.70;;
18170;SDS011;9210;48.358;10.902;2023-05-20T04:25:52;12.83;;;7.83;;
18170;SDS011;9210;48.358;10.902;2023-05-20T04:28:22;10.83;;;6.83;;
18170;SDS011;9210;48.358;10.902;2023-05-20T04:30:58;11.70;;;7.40;;
18170;SDS011;9210;48.358;10.902;2023-05-20T04:33:28;13.17;;;7.20;;
18170;SDS011;9210;48.358;10.902;2023-05-20T04:35:59;11.70;;;7.47;;
18170;SDS011;9210;48.358;10.902;2023-05-20T04:38:28;12.33;;;7.30;;
18170;SDS011;9210;48.358;10.902;2023-05-20T04:41:00;11.23;;;7.87;;
18170;SDS011;9210;48.358;10.902;2023-05-20T04:43:29;11.20;;;7.37;;
18170;SDS011;9210;48.358;10.902;2023-05-20T04:46:00;14.13;;;7.23;;
18170;SDS011;9210;48.358;10.902;2023-05-20T04:48:32;14.10;;;7.80;;
18170;SDS011;9210;48.358;10.902;2023-05-20T04:51:01;11.43;;;7.60;;
18170;SDS011;9210;48.358;10.902;2023-05-20T04:53:30;12.67;;;7.63;;
18170;SDS011;9210;48.358;10.902;2023-05-20T04:55:59;12.43;;;8.27;;
18170;SDS011;9210;48.358;10.902;2023-05-20T04:58:29;15.77;;;7.97;;
18170;SDS011;9210;48.358;10.902;2023-05-20T05:01:00;12.40;;;7.63;;
18170;SDS011;9210;48.358;10.902;2023-05-20T05:03:29;12.37;;;7.80;;
18170;SDS011;9210;48.358;10.902;2023-05-20T05:05:57;11.93;;;7.90;;
18170;SDS011;9210;48.358;10.902;2023-05-20T05:08:26;13.73;;;8.47;;
18170;SDS011;9210;48.358;10.902;2023-05-20T05:10:56;12.83;;;8.47;;
18170;SDS011;9210;48.358;10.902;2023-05-20T05:13:25;13.67;;;7.93;;
18170;SDS011;9210;48.358;10.902;2023-05-20T05:15:57;14.20;;;7.90;;
18170;SDS011;9210;48.358;10.902;2023-05-20T05:18:29;12.43;;;8.23;;
18170;SDS011;9210;48.358;10.902;2023-05-20T05:20:58;12.97;;;8.03;;
18170;SDS011;9210;48.358;10.902;2023-05-20T05:23:27;13.90;;;8.20;;
18170;SDS011;9210;48.358;10.902;2023-05-20T05:25:55;17.03;;;9.37;;
18170;SDS011;9210;48.358;10.902;2023-05-20T05:28:24;16.30;;;9.40;;
18170;SDS011;9210;48.358;10.902;2023-05-20T05:30:56;17.93;;;9.90;;
18170;SDS011;9210;48.358;10.902;2023-05-20T05:33:25;19.57;;;9.73;;
18170;SDS011;9210;48.358;10.902;2023-05-20T05:35:56;17.87;;;9.93;;
18170;SDS011;9210;48.358;10.902;2023-05-20T05:38:26;20.23;;;11.00;;
18170;SDS011;9210;48.358;10.902;2023-05-20T05:40:55;18.67;;;10.30;;
18170;SDS011;9210;48.358;10.902;2023-05-20T05:43:23;19.77;;;11.23;;
18170;SDS011;9210;48.358;10.902;2023-05-20T05:45:52;22.50;;;12.33;;
18170;SDS011;9210;48.358;10.902;2023-05-20T05:48:20;22.60;;;12.13;;
18170;SDS011;9210;48.358;10.902;2023-05-20T05:50:49;22.00;;;12.43;;
18170;SDS011;9210;48.358;10.902;2023-05-20T05:53:21;20.97;;;12.33;;
18170;SDS011;9210;48.358;10.902;2023-05-20T05:55:50;24.20;;;13.20;;
18170;SDS011;9210;48.358;10.902;2023-05-20T05:58:19;25.13;;;13.63;;
18170;SDS011;9210;48.358;10.902;2023-05-20T06:00:50;22.87;;;12.93;;
18170;SDS011;9210;48.358;10.902;2023-05-20T06:03:20;26.53;;;13.03;;
18170;SDS011;9210;48.358;10.902;2023-05-20T06:05:50;23.80;;;12.97;;
18170;SDS011;9210;48.358;10.902;2023-05-20T06:08:21;22.70;;;12.97;;
18170;SDS011;9210;48.358;10.902;2023-05-20T06:10:50;21.27;;;12.83;;
18170;SDS011;9210;48.358;10.902;2023-05-20T06:13:18;25.13;;;13.97;;
18170;SDS011;9210;48.358;10.902;2023-05-20T06:15:48;24.03;;;13.53;;
18170;SDS011;9210;48.358;10.902;2023-05-20T06:18:16;22.30;;;12.87;;
18170;SDS011;9210;48.358;10.902;2023-05-20T06:20:45;21.73;;;12.90;;
18170;SDS011;9210;48.358;10.902;2023-05-20T06:23:14;20.83;;;12.07;;
18170;SDS011;9210;48.358;10.902;2023-05-20T06:25:58;21.97;;;12.20;;
18170;SDS011;9210;48.358;10.902;2023-05-20T06:28:28;23.07;;;12.70;;
18170;SDS011;9210;48.358;10.902;2023-05-20T06:30:57;22.57;;;13.10;;
18170;SDS011;9210;48.358;10.902;2023-05-20T06:33:30;23.07;;;13.87;;
18170;SDS011;9210;48.358;10.902;2023-05-20T06:36:04;22.87;;;13.67;;
18170;SDS011;9210;48.358;10.902;2023-05-20T06:38:32;21.43;;;14.10;;
18170;SDS011;9210;48.358;10.902;2023-05-20T06:41:03;19.20;;;12.97;;
18170;SDS011;9210;48.358;10.902;2023-05-20T06:43:32;19.33;;;12.20;;
18170;SDS011;9210;48.358;10.902;2023-05-20T06:46:08;20.83;;;12.87;;
18170;SDS011;9210;48.358;10.902;2023-05-20T06:48:43;18.60;;;11.97;;
18170;SDS011;9210;48.358;10.902;2023-05-20T06:54:07;22.33;;;13.37;;
18170;SDS011;9210;48.358;10.902;2023-05-20T06:56:38;17.77;;;11.13;;
18170;SDS011;9210;48.358;10.902;2023-05-20T06:59:06;17.43;;;11.70;;
18170;SDS011;9210;48.358;10.902;2023-05-20T07:01:36;20.17;;;11.97;;
18170;SDS011;9210;48.358;10.902;2023-05-20T07:04:05;19.43;;;12.30;;
18170;SDS011;9210;48.358;10.902;2023-05-20T07:06:34;21.00;;;11.27;;
18170;SDS011;9210;48.358;10.902;2023-05-20T07:09:03;18.23;;;11.67;;
18170;SDS011;9210;48.358;10.902;2023-05-20T07:11:52;20.17;;;12.37;;
18170;SDS011;9210;48.358;10.902;2023-05-20T07:14:21;17.03;;;11.20;;
18170;SDS011;9210;48.358;10.902;2023-05-20T07:16:50;16.10;;;11.13;;
18170;SDS011;9210;48.358;10.902;2023-05-20T07:19:20;19.67;;;11.50;;
18170;SDS011;9210;48.358;10.902;2023-05-20T07:21:48;19.07;;;12.43;;
18170;SDS011;9210;48.358;10.902;2023-05-20T07:24:33;17.30;;;11.40;;
18170;SDS011;9210;48.358;10.902;2023-05-20T07:27:06;21.00;;;12.13;;
18170;SDS011;9210;48.358;10.902;2023-05-20T07:29:35;19.13;;;11.80;;
18170;SDS011;9210;48.358;10.902;2023-05-20T07:32:04;16.53;;;11.53;;
18170;SDS011;9210;48.358;10.902;2023-05-20T07:34:34;16.63;;;11.00;;
18170;SDS011;9210;48.358;10.902;2023-05-20T07:37:03;17.73;;;11.13;;
18170;SDS011;9210;48.358;10.902;2023-05-20T07:39:31;19.20;;;11.70;;
18170;SDS011;9210;48.358;10.902;2023-05-20T07:42:00;18.40;;;12.20;;
18170;SDS011;9210;48.358;10.902;2023-05-20T07:47:29;16.30;;;10.70;;
18170;SDS011;9210;48.358;10.902;2023-05-20T07:50:09;16.03;;;11.47;;
18170;SDS011;9210;48.358;10.902;2023-05-20T07:52:40;17.63;;;10.90;;
18170;SDS011;9210;48.358;10.902;2023-05-20T07:55:25;17.77;;;11.57;;
18170;SDS011;9210;48.358;10.902;2023-05-20T07:57:55;16.80;;;10.77;;
18170;SDS011;9210;48.358;10.902;2023-05-20T08:00:24;14.10;;;10.37;;
18170;SDS011;9210;48.358;10.902;2023-05-20T08:02:54;16.70;;;10.63;;
18170;SDS011;9210;48.358;10.902;2023-05-20T08:05:30;19.10;;;10.63;;
18170;SDS011;9210;48.358;10.902;2023-05-20T08:08:00;14.17;;;9.90;;
18170;SDS011;9210;48.358;10.902;2023-05-20T08:10:41;13.57;;;10.03;;
18170;SDS011;9210;48.358;10.902;2023-05-20T08:13:10;16.00;;;10.50;;
18170;SDS011;9210;48.358;10.902;2023-05-20T08:15:40;14.33;;;10.47;;
18170;SDS011;9210;48.358;10.902;2023-05-20T08:18:13;15.20;;;10.23;;
18170;SDS011;9210;48.358;10.902;2023-05-20T08:20:42;15.67;;;11.00;;
18170;SDS011;9210;48.358;10.902;2023-05-20T08:23:11;13.43;;;9.20;;
18170;SDS011;9210;48.358;10.902;2023-05-20T08:25:40;13.83;;;9.27;;
18170;SDS011;9210;48.358;10.902;2023-05-20T08:28:12;18.63;;;10.03;;
18170;SDS011;9210;48.358;10.902;2023-05-20T08:30:41;15.23;;;10.03;;
18170;SDS011;9210;48.358;10.902;2023-05-20T08:33:11;16.70;;;10.33;;
18170;SDS011;9210;48.358;10.902;2023-05-20T08:38:08;13.93;;;9.35;;
18170;SDS011;9210;48.358;10.902;2023-05-20T08:40:37;13.10;;;9.00;;
18170;SDS011;9210;48.358;10.902;2023-05-20T08:43:07;13.95;;;9.00;;
18170;SDS011;9210;48.358;10.902;2023-05-20T08:45:37;13.50;;;8.98;;
18170;SDS011;9210;48.358;10.902;2023-05-20T08:48:15;12.93;;;8.97;;
18170;SDS011;9210;48.358;10.902;2023-05-20T08:50:49;13.77;;;9.13;;
18170;SDS011;9210;48.358;10.902;2023-05-20T08:53:18;12.80;;;9.30;;
18170;SDS011;9210;48.358;10.902;2023-05-20T08:55:51;11.65;;;8.70;;
18170;SDS011;9210;48.358;10.902;2023-05-20T08:58:20;11.85;;;8.13;;
18170;SDS011;9210;48.358;10.902;2023-05-20T09:00:50;10.60;;;7.10;;
18170;SDS011;9210;48.358;10.902;2023-05-20T09:03:20;12.05;;;7.72;;
18170;SDS011;9210;48.358;10.902;2023-05-20T09:05:52;9.98;;;6.85;;
18170;SDS011;9210;48.358;10.902;2023-05-20T09:08:23;13.00;;;7.15;;
18170;SDS011;9210;48.358;10.902;2023-05-20T09:10:52;9.32;;;6.93;;
18170;SDS011;9210;48.358;10.902;2023-05-20T09:13:22;9.95;;;6.80;;
18170;SDS011;9210;48.358;10.902;2023-05-20T09:15:51;12.45;;;7.90;;
18170;SDS011;9210;48.358;10.902;2023-05-20T09:18:23;10.23;;;7.53;;
18170;SDS011;9210;48.358;10.902;2023-05-20T09:20:53;10.52;;;7.78;;
18170;SDS011;9210;48.358;10.902;2023-05-20T09:23:22;13.32;;;7.53;;
18170;SDS011;9210;48.358;10.902;2023-05-20T09:25:53;11.77;;;7.97;;
18170;SDS011;9210;48.358;10.902;2023-05-20T09:28:23;11.20;;;7.20;;
18170;SDS011;9210;48.358;10.902;2023-05-20T09:30:55;11.18;;;7.25;;
18170;SDS011;9210;48.358;10.902;2023-05-20T09:33:28;11.38;;;6.68;;
18170;SDS011;9210;48.358;10.902;2023-05-20T09:36:01;10.77;;;7.50;;
18170;SDS011;9210;48.358;10.902;2023-05-20T09:38:33;13.20;;;6.80;;
18170;SDS011;9210;48.358;10.902;2023-05-20T09:41:06;13.48;;;7.55;;
18170;SDS011;9210;48.358;10.902;2023-05-20T09:43:36;12.93;;;7.32;;
18170;SDS011;9210;48.358;10.902;2023-05-20T09:46:05;11.23;;;6.82;;
18170;SDS011;9210;48.358;10.902;2023-05-20T09:48:36;9.85;;;6.80;;
18170;SDS011;9210;48.358;10.902;2023-05-20T09:51:05;10.23;;;6.40;;
18170;SDS011;9210;48.358;10.902;2023-05-20T09:53:34;10.77;;;6.88;;
18170;SDS011;9210;48.358;10.902;2023-05-20T09:56:03;8.80;;;6.25;;
18170;SDS011;9210;48.358;10.902;2023-05-20T09:58:33;11.27;;;7.07;;
18170;SDS011;9210;48.358;10.902;2023-05-20T10:01:03;10.10;;;6.35;;
18170;SDS011;9210;48.358;10.902;2023-05-20T10:03:33;9.95;;;6.07;;
18170;SDS011;9210;48.358;10.902;2023-05-20T10:06:13;9.93;;;6.95;;
18170;SDS011;9210;48.358;10.902;2023-05-20T10:08:53;10.98;;;6.75;;
18170;SDS011;9210;48.358;10.902;2023-05-20T10:11:26;10.48;;;6.35;;
18170;SDS011;9210;48.358;10.902;2023-05-20T10:14:02;9.05;;;5.50;;
18170;SDS011;9210;48.358;10.902;2023-05-20T10:16:36;7.53;;;5.18;;
18170;SDS011;9210;48.358;10.902;2023-05-20T10:19:11;7.47;;;5.40;;
18170;SDS011;9210;48.358;10.902;2023-05-20T10:21:43;12.30;;;6.32;;
18170;SDS011;9210;48.358;10.902;2023-05-20T10:24:12;8.65;;;5.72;;
18170;SDS011;9210;48.358;10.902;2023-05-20T10:26:41;8.02;;;5.93;;
18170;SDS011;9210;48.358;10.902;2023-05-20T10:29:15;7.03;;;4.63;;
18170;SDS011;9210;48.358;10.902;2023-05-20T10:31:43;10.70;;;5.00;;
18170;SDS011;9210;48.358;10.902;2023-05-20T10:34:13;7.00;;;5.13;;
18170;SDS011;9210;48.358;10.902;2023-05-20T10:36:56;7.97;;;5.10;;
18170;SDS011;9210;48.358;10.902;2023-05-20T10:39:26;7.53;;;5.05;;
18170;SDS011;9210;48.358;10.902;2023-05-20T10:42:06;10.02;;;5.78;;
18170;SDS011;9210;48.358;10.902;2023-05-20T10:44:41;8.90;;;5.28;;
18170;SDS011;9210;48.358;10.902;2023-05-20T10:47:10;7.80;;;4.47;;
18170;SDS011;9210;48.358;10.902;2023-05-20T10:49:43;9.27;;;5.88;;
18170;SDS011;9210;48.358;10.902;2023-05-20T10:52:13;7.18;;;5.18;;
18170;SDS011;9210;48.358;10.902;2023-05-20T10:54:43;8.10;;;4.97;;
18170;SDS011;9210;48.358;10.902;2023-05-20T10:57:13;9.55;;;5.45;;
18170;SDS011;9210;48.358;10.902;2023-05-20T10:59:42;7.75;;;5.10;;
18170;SDS011;9210;48.358;10.902;2023-05-20T11:02:14;6.63;;;4.93;;
18170;SDS011;9210;48.358;10.902;2023-05-20T11:04:43;8.77;;;5.75;;
18170;SDS011;9210;48.358;10.902;2023-05-20T11:07:23;8.63;;;5.47;;
18170;SDS011;9210;48.358;10.902;2023-05-20T11:09:55;11.32;;;5.57;;
18170;SDS011;9210;48.358;10.902;2023-05-20T11:12:26;10.35;;;5.47;;
18170;SDS011;9210;48.358;10.902;2023-05-20T11:14:55;7.75;;;4.97;;
18170;SDS011;9210;48.358;10.902;2023-05-20T11:17:24;8.57;;;5.18;;
18170;SDS011;9210;48.358;10.902;2023-05-20T11:19:53;8.20;;;5.30;;
18170;SDS011;9210;48.358;10.902;2023-05-20T11:22:23;6.55;;;4.63;;
18170;SDS011;9210;48.358;10.902;2023-05-20T11:24:52;7.07;;;4.90;;
18170;SDS011;9210;48.358;10.902;2023-05-20T11:27:20;10.00;;;5.45;;
18170;SDS011;9210;48.358;10.902;2023-05-20T11:29:49;6.15;;;4.63;;
18170;SDS011;9210;48.358;10.902;2023-05-20T11:32:18;8.48;;;4.88;;
18170;SDS011;9210;48.358;10.902;2023-05-20T11:34:49;7.63;;;4.53;;
18170;SDS011;9210;48.358;10.902;2023-05-20T11:37:20;7.90;;;4.85;;
18170;SDS011;9210;48.358;10.902;2023-05-20T11:40:03;7.75;;;4.53;;
18170;SDS011;9210;48.358;10.902;2023-05-20T11:42:35;5.68;;;4.20;;
18170;SDS011;9210;48.358;10.902;2023-05-20T11:45:11;8.00;;;4.05;;
18170;SDS011;9210;48.358;10.902;2023-05-20T11:47:40;6.38;;;4.07;;
18170;SDS011;9210;48.358;10.902;2023-05-20T11:50:09;5.35;;;4.00;;
18170;SDS011;9210;48.358;10.902;2023-05-20T11:52:39;7.28;;;4.13;;
18170;SDS011;9210;48.358;10.902;2023-05-20T11:55:11;5.97;;;4.30;;
18170;SDS011;9210;48.358;10.902;2023-05-20T11:57:42;6.38;;;4.50;;
18170;SDS011;9210;48.358;10.902;2023-05-20T12:00:11;8.13;;;4.35;;
18170;SDS011;9210;48.358;10.902;2023-05-20T12:02:40;5.57;;;3.90;;
18170;SDS011;9210;48.358;10.902;2023-05-20T12:05:09;5.35;;;3.50;;
18170;SDS011;9210;48.358;10.902;2023-05-20T12:07:39;5.75;;;3.70;;
18170;SDS011;9210;48.358;10.902;2023-05-20T12:10:11;5.18;;;3.58;;
18170;SDS011;9210;48.358;10.902;2023-05-20T12:12:42;5.70;;;3.38;;
18170;SDS011;9210;48.358;10.902;2023-05-20T12:15:11;6.95;;;4.13;;
18170;SDS011;9210;48.358;10.902;2023-05-20T12:17:44;6.57;;;4.10;;
18170;SDS011;9210;48.358;10.902;2023-05-20T12:20:14;4.40;;;3.55;;
18170;SDS011;9210;48.358;10.902;2023-05-20T12:22:44;6.00;;;4.35;;
18170;SDS011;9210;48.358;10.902;2023-05-20T12:25:16;5.65;;;3.90;;
18170;SDS011;9210;48.358;10.902;2023-05-20T12:27:44;7.00;;;4.20;;
18170;SDS011;9210;48.358;10.902;2023-05-20T12:30:14;7.40;;;4.20;;
18170;SDS011;9210;48.358;10.902;2023-05-20T12:32:43;7.63;;;4.13;;
18170;SDS011;9210;48.358;10.902;2023-05-20T12:35:12;5.78;;;3.53;;
18170;SDS011;9210;48.358;10.902;2023-05-20T12:37:41;6.40;;;3.40;;
18170;SDS011;9210;48.358;10.902;2023-05-20T12:40:10;6.38;;;4.28;;
18170;SDS011;9210;48.358;10.902;2023-05-20T12:42:46;6.97;;;3.72;;
18170;SDS011;9210;48.358;10.902;2023-05-20T12:45:14;7.20;;;3.60;;
18170;SDS011;9210;48.358;10.902;2023-05-20T12:47:43;8.30;;;3.53;;
18170;SDS011;9210;48.358;10.902;2023-05-20T12:50:12;8.38;;;3.45;;
18170;SDS011;9210;48.358;10.902;2023-05-20T12:52:40;7.50;;;3.30;;
18170;SDS011;9210;48.358;10.902;2023-05-20T12:55:09;6.90;;;3.22;;
18170;SDS011;9210;48.358;10.902;2023-05-20T12:57:43;4.78;;;3.30;;
18170;SDS011;9210;48.358;10.902;2023-05-20T13:00:12;6.32;;;3.92;;
18170;SDS011;9210;48.358;10.902;2023-05-20T13:02:41;5.72;;;3.90;;
18170;SDS011;9210;48.358;10.902;2023-05-20T13:05:12;8.23;;;4.50;;
18170;SDS011;9210;48.358;10.902;2023-05-20T13:07:41;6.70;;;3.95;;
18170;SDS011;9210;48.358;10.902;2023-05-20T13:10:10;8.80;;;4.43;;
18170;SDS011;9210;48.358;10.902;2023-05-20T13:12:39;8.18;;;4.20;;
18170;SDS011;9210;48.358;10.902;2023-05-20T13:15:12;7.93;;;4.03;;
18170;SDS011;9210;48.358;10.902;2023-05-20T13:17:41;5.80;;;3.42;;
18170;SDS011;9210;48.358;10.902;2023-05-20T13:20:13;5.97;;;3.83;;
18170;SDS011;9210;48.358;10.902;2023-05-20T13:22:45;5.40;;;3.30;;
18170;SDS011;9210;48.358;10.902;2023-05-20T13:25:15;7.53;;;4.00;;
18170;SDS011;9210;48.358;10.902;2023-05-20T13:27:44;9.23;;;4.07;;
18170;SDS011;9210;48.358;10.902;2023-05-20T13:30:14;5.55;;;3.67;;
18170;SDS011;9210;48.358;10.902;2023-05-20T13:32:42;6.72;;;3.90;;
18170;SDS011;9210;48.358;10.902;2023-05-20T13:35:11;5.30;;;3.45;;
18170;SDS011;9210;48.358;10.902;2023-05-20T13:37:42;5.72;;;3.88;;
18170;SDS011;9210;48.358;10.902;2023-05-20T13:40:11;4.88;;;3.35;;
18170;SDS011;9210;48.358;10.902;2023-05-20T13:42:39;6.07;;;3.45;;
18170;SDS011;9210;48.358;10.902;2023-05-20T13:45:09;7.65;;;3.60;;
18170;SDS011;9210;48.358;10.902;2023-05-20T13:47:40;7.38;;;3.60;;
18170;SDS011;9210;48.358;10.902;2023-05-20T13:50:09;5.47;;;3.72;;
18170;SDS011;9210;48.358;10.902;2023-05-20T13:52:38;7.63;;;3.92;;
18170;SDS011;9210;48.358;10.902;2023-05-20T13:55:08;9.77;;;3.75;;
18170;SDS011;9210;48.358;10.902;2023-05-20T13:57:37;8.65;;;3.92;;
18170;SDS011;9210;48.358;10.902;2023-05-20T14:00:14;6.18;;;4.28;;
18170;SDS011;9210;48.358;10.902;2023-05-20T14:02:47;7.30;;;4.68;;
18170;SDS011;9210;48.358;10.902;2023-05-20T14:05:17;8.27;;;5.00;;
18170;SDS011;9210;48.358;10.902;2023-05-20T14:07:46;7.80;;;4.78;;
18170;SDS011;9210;48.358;10.902;2023-05-20T14:10:15;9.25;;;4.85;;
18170;SDS011;9210;48.358;10.902;2023-05-20T14:12:43;9.82;;;4.95;;
18170;SDS011;9210;48.358;10.902;2023-05-20T14:15:13;9.23;;;4.85;;
18170;SDS011;9210;48.358;10.902;2023-05-20T14:17:42;9.07;;;5.18;;
18170;SDS011;9210;48.358;10.902;2023-05-20T14:20:12;8.55;;;5.22;;
18170;SDS011;9210;48.358;10.902;2023-05-20T14:22:40;7.60;;;4.57;;
18170;SDS011;9210;48.358;10.902;2023-05-20T14:25:11;7.18;;;4.80;;
18170;SDS011;9210;48.358;10.902;2023-05-20T14:27:39;9.88;;;4.88;;
18170;SDS011;9210;48.358;10.902;2023-05-20T14:30:08;8.23;;;5.03;;
18170;SDS011;9210;48.358;10.902;2023-05-20T14:32:37;8.68;;;5.30;;
18170;SDS011;9210;48.358;10.902;2023-05-20T14:35:06;8.13;;;5.05;;
18170;SDS011;9210;48.358;10.902;2023-05-20T14:37:36;8.68;;;5.30;;
18170;SDS011;9210;48.358;10.902;2023-05-20T14:40:05;10.52;;;5.13;;
18170;SDS011;9210;48.358;10.902;2023-05-20T14:42:35;9.57;;;5.30;;
18170;SDS011;9210;48.358;10.902;2023-05-20T14:45:03;9.15;;;5.80;;
18170;SDS011;9210;48.358;10.902;2023-05-20T14:47:32;7.95;;;5.30;;
18170;SDS011;9210;48.358;10.902;2023-05-20T14:50:01;8.40;;;5.95;;
18170;SDS011;9210;48.358;10.902;2023-05-20T14:52:29;9.07;;;5.38;;
18170;SDS011;9210;48.358;10.902;2023-05-20T14:55:00;9.95;;;6.25;;
18170;SDS011;9210;48.358;10.902;2023-05-20T14:57:28;10.65;;;6.30;;
18170;SDS011;9210;48.358;10.902;2023-05-20T14:59:57;12.20;;;6.00;;
18170;SDS011;9210;48.358;10.902;2023-05-20T15:02:26;12.60;;;6.25;;
18170;SDS011;9210;48.358;10.902;2023-05-20T15:04:55;9.63;;;5.35;;